DAL8954 KLAS-KPSP
Flight info
| Callsign | DAL8954 |
|---|---|
| Flight time | 0h 39m |
| Altitude | 27000 |
| Route | RADYR2 BLAQQ ZELMA RDBUL1 |
| Aircraft | B738/M-SDE2E3FGHIRWXY/LB1 |
Departure
| Time | 2026-05-04 21:41 |
|---|---|
| Airport | Harry Reid International Airport (KLAS) |
Arrival
| Time | 2026-05-04 22:21 |
|---|---|
| Airport | Palm Springs International Airport (KPSP) |
| Time | Latitude | Longitude | Altitude | Speed | Heading |
|---|---|---|---|---|---|
| 2026-05-04 21:08 | 36.08344 | -115.13627 | 2070 ft | 0 kts | 160° |
| 2026-05-04 21:32 | 36.08346 | -115.13628 | 2070 ft | 1 kts | 160° |
| 2026-05-04 21:32 | 36.08360 | -115.13634 | 2070 ft | 2 kts | 159° |
| 2026-05-04 21:33 | 36.08374 | -115.13641 | 2070 ft | 2 kts | 159° |
| 2026-05-04 21:33 | 36.08389 | -115.13648 | 2070 ft | 2 kts | 159° |
| 2026-05-04 21:33 | 36.08403 | -115.13654 | 2070 ft | 2 kts | 159° |
| 2026-05-04 21:33 | 36.08412 | -115.13658 | 2070 ft | 2 kts | 160° |
| 2026-05-04 21:34 | 36.08425 | -115.13667 | 2070 ft | 2 kts | 139° |
| 2026-05-04 21:34 | 36.08434 | -115.13679 | 2070 ft | 2 kts | 124° |
| 2026-05-04 21:34 | 36.08441 | -115.13695 | 2070 ft | 2 kts | 107° |
| 2026-05-04 21:34 | 36.08444 | -115.13710 | 2070 ft | 0 kts | 93° |
| 2026-05-04 21:35 | 36.08444 | -115.13719 | 2071 ft | 0 kts | 90° |
| 2026-05-04 21:35 | 36.08444 | -115.13720 | 2071 ft | 0 kts | 91° |
| 2026-05-04 21:36 | 36.08444 | -115.13674 | 2071 ft | 14 kts | 90° |
| 2026-05-04 21:37 | 36.08439 | -115.13501 | 2064 ft | 21 kts | 103° |
| 2026-05-04 21:37 | 36.08348 | -115.13363 | 2063 ft | 20 kts | 140° |
| 2026-05-04 21:37 | 36.08231 | -115.13297 | 2064 ft | 17 kts | 177° |
| 2026-05-04 21:37 | 36.08117 | -115.13295 | 2066 ft | 14 kts | 180° |
| 2026-05-04 21:38 | 36.08023 | -115.13296 | 2068 ft | 12 kts | 180° |
| 2026-05-04 21:38 | 36.07948 | -115.13293 | 2070 ft | 9 kts | 174° |
| 2026-05-04 21:38 | 36.07910 | -115.13245 | 2069 ft | 10 kts | 106° |
| 2026-05-04 21:38 | 36.07903 | -115.13139 | 2067 ft | 13 kts | 94° |
| 2026-05-04 21:39 | 36.07861 | -115.13030 | 2064 ft | 13 kts | 154° |
| 2026-05-04 21:39 | 36.07826 | -115.12925 | 2062 ft | 17 kts | 89° |
| 2026-05-04 21:39 | 36.07821 | -115.12749 | 2058 ft | 19 kts | 90° |
| 2026-05-04 21:39 | 36.07806 | -115.12634 | 2056 ft | 7 kts | 156° |
| 2026-05-04 21:40 | 36.07762 | -115.12618 | 2057 ft | 6 kts | 166° |
| 2026-05-04 21:40 | 36.07707 | -115.12604 | 2058 ft | 11 kts | 174° |
| 2026-05-04 21:40 | 36.07648 | -115.12629 | 2059 ft | 7 kts | 248° |
| 2026-05-04 21:40 | 36.07643 | -115.12679 | 2060 ft | 4 kts | 268° |
| 2026-05-04 21:41 | 36.07643 | -115.12873 | 2064 ft | 51 kts | 269° |
| 2026-05-04 21:41 | 36.07642 | -115.13644 | 2086 ft | 125 kts | 268° |
| 2026-05-04 21:41 | 36.07666 | -115.14969 | 2217 ft | 175 kts | 274° |
| 2026-05-04 21:41 | 36.07784 | -115.16472 | 2939 ft | 183 kts | 269° |
| 2026-05-04 21:42 | 36.07741 | -115.18061 | 3691 ft | 195 kts | 259° |
| 2026-05-04 21:42 | 36.07618 | -115.19768 | 4362 ft | 208 kts | 261° |
| 2026-05-04 21:42 | 36.07498 | -115.21589 | 4981 ft | 223 kts | 258° |
| 2026-05-04 21:42 | 36.07228 | -115.23524 | 5654 ft | 234 kts | 252° |
| 2026-05-04 21:43 | 36.06530 | -115.25320 | 6466 ft | 235 kts | 228° |
| 2026-05-04 21:43 | 36.05284 | -115.26557 | 7376 ft | 233 kts | 206° |
| 2026-05-04 21:43 | 36.03805 | -115.27332 | 8184 ft | 237 kts | 200° |
| 2026-05-04 21:43 | 36.02265 | -115.28014 | 9094 ft | 236 kts | 198° |
| 2026-05-04 21:44 | 36.00725 | -115.28699 | 9830 ft | 242 kts | 199° |
| 2026-05-04 21:44 | 35.99122 | -115.29387 | 10585 ft | 247 kts | 197° |
| 2026-05-04 21:44 | 35.97473 | -115.29896 | 11428 ft | 247 kts | 192° |
| 2026-05-04 21:44 | 35.95805 | -115.30276 | 12326 ft | 245 kts | 192° |
| 2026-05-04 21:45 | 35.94111 | -115.30654 | 12970 ft | 252 kts | 194° |
| 2026-05-04 21:45 | 35.92414 | -115.31060 | 13854 ft | 249 kts | 194° |
| 2026-05-04 21:45 | 35.90730 | -115.31479 | 14608 ft | 250 kts | 195° |
| 2026-05-04 21:45 | 35.89020 | -115.31908 | 15303 ft | 253 kts | 195° |
| 2026-05-04 21:46 | 35.87299 | -115.32317 | 16005 ft | 255 kts | 195° |
| 2026-05-04 21:46 | 35.85562 | -115.32724 | 16721 ft | 255 kts | 197° |
| 2026-05-04 21:46 | 35.83828 | -115.33153 | 17428 ft | 256 kts | 197° |
| 2026-05-04 21:46 | 35.82097 | -115.33585 | 18107 ft | 256 kts | 198° |
| 2026-05-04 21:47 | 35.80334 | -115.34033 | 18687 ft | 261 kts | 198° |
| 2026-05-04 21:47 | 35.78556 | -115.34456 | 19385 ft | 261 kts | 197° |
| 2026-05-04 21:47 | 35.76778 | -115.34869 | 20017 ft | 263 kts | 198° |
| 2026-05-04 21:47 | 35.74970 | -115.35315 | 20559 ft | 267 kts | 199° |
| 2026-05-04 21:48 | 35.73154 | -115.35757 | 21194 ft | 268 kts | 199° |
| 2026-05-04 21:48 | 35.71302 | -115.36204 | 21655 ft | 273 kts | 199° |
| 2026-05-04 21:48 | 35.69453 | -115.36680 | 22285 ft | 273 kts | 200° |
| 2026-05-04 21:48 | 35.67580 | -115.37162 | 22794 ft | 277 kts | 199° |
| 2026-05-04 21:49 | 35.65702 | -115.37619 | 23403 ft | 275 kts | 199° |
| 2026-05-04 21:49 | 35.63829 | -115.38071 | 23946 ft | 275 kts | 200° |
| 2026-05-04 21:49 | 35.61962 | -115.38495 | 24593 ft | 272 kts | 198° |
| 2026-05-04 21:49 | 35.60072 | -115.38726 | 25089 ft | 277 kts | 192° |
| 2026-05-04 21:50 | 35.58119 | -115.38680 | 25499 ft | 285 kts | 189° |
| 2026-05-04 21:50 | 35.56101 | -115.38533 | 25679 ft | 297 kts | 187° |
| 2026-05-04 21:50 | 35.54005 | -115.38367 | 25792 ft | 310 kts | 187° |
| 2026-05-04 21:50 | 35.51823 | -115.38191 | 26142 ft | 314 kts | 187° |
| 2026-05-04 21:51 | 35.49662 | -115.38009 | 26662 ft | 312 kts | 187° |
| 2026-05-04 21:51 | 35.47504 | -115.37838 | 26870 ft | 309 kts | 187° |
| 2026-05-04 21:51 | 35.45381 | -115.37668 | 26904 ft | 302 kts | 187° |
| 2026-05-04 21:51 | 35.43307 | -115.37503 | 26915 ft | 296 kts | 188° |
| 2026-05-04 21:52 | 35.41262 | -115.37346 | 26919 ft | 294 kts | 187° |
| 2026-05-04 21:52 | 35.39208 | -115.37164 | 26921 ft | 298 kts | 188° |
| 2026-05-04 21:52 | 35.37121 | -115.37017 | 26925 ft | 301 kts | 189° |
| 2026-05-04 21:52 | 35.35044 | -115.36921 | 26919 ft | 296 kts | 188° |
| 2026-05-04 21:53 | 35.32988 | -115.36788 | 26925 ft | 295 kts | 188° |
| 2026-05-04 21:53 | 35.30940 | -115.36641 | 26931 ft | 296 kts | 189° |
| 2026-05-04 21:53 | 35.28870 | -115.36523 | 26927 ft | 298 kts | 188° |
| 2026-05-04 21:53 | 35.26803 | -115.36384 | 26924 ft | 299 kts | 188° |
| 2026-05-04 21:54 | 35.24725 | -115.36223 | 26927 ft | 298 kts | 188° |
| 2026-05-04 21:54 | 35.22665 | -115.36079 | 26924 ft | 295 kts | 188° |
| 2026-05-04 21:54 | 35.20617 | -115.35940 | 26929 ft | 294 kts | 188° |
| 2026-05-04 21:54 | 35.18571 | -115.35802 | 26925 ft | 296 kts | 188° |
| 2026-05-04 21:55 | 35.16490 | -115.35675 | 26939 ft | 301 kts | 188° |
| 2026-05-04 21:55 | 35.14408 | -115.35529 | 26928 ft | 298 kts | 188° |
| 2026-05-04 21:55 | 35.12346 | -115.35366 | 26932 ft | 296 kts | 188° |
| 2026-05-04 21:55 | 35.10293 | -115.35194 | 26943 ft | 297 kts | 188° |
| 2026-05-04 21:56 | 35.08222 | -115.35049 | 26937 ft | 298 kts | 188° |
| 2026-05-04 21:56 | 35.06159 | -115.34911 | 26930 ft | 296 kts | 189° |
| 2026-05-04 21:56 | 35.04109 | -115.34757 | 26931 ft | 294 kts | 188° |
| 2026-05-04 21:56 | 35.02081 | -115.34590 | 26929 ft | 292 kts | 188° |
| 2026-05-04 21:57 | 35.00037 | -115.34449 | 26938 ft | 296 kts | 188° |
| 2026-05-04 21:57 | 34.97981 | -115.34323 | 26929 ft | 296 kts | 189° |
| 2026-05-04 21:57 | 34.95933 | -115.34187 | 26928 ft | 294 kts | 189° |
| 2026-05-04 21:57 | 34.93887 | -115.34039 | 26927 ft | 295 kts | 188° |
| 2026-05-04 21:58 | 34.91842 | -115.33888 | 26914 ft | 293 kts | 188° |
| 2026-05-04 21:58 | 34.89799 | -115.33727 | 26916 ft | 295 kts | 188° |
| 2026-05-04 21:58 | 34.87733 | -115.33585 | 26906 ft | 299 kts | 188° |
| 2026-05-04 21:58 | 34.85664 | -115.33470 | 26897 ft | 297 kts | 189° |
| 2026-05-04 21:59 | 34.83609 | -115.33345 | 26891 ft | 293 kts | 188° |
| 2026-05-04 21:59 | 34.81577 | -115.33215 | 26895 ft | 292 kts | 189° |
| 2026-05-04 21:59 | 34.79539 | -115.33171 | 26892 ft | 293 kts | 192° |
| 2026-05-04 21:59 | 34.77517 | -115.33375 | 26892 ft | 288 kts | 200° |
| 2026-05-04 22:00 | 34.75619 | -115.33991 | 26892 ft | 278 kts | 205° |
| 2026-05-04 22:00 | 34.73822 | -115.34817 | 26886 ft | 276 kts | 208° |
| 2026-05-04 22:00 | 34.72033 | -115.35680 | 26899 ft | 278 kts | 207° |
| 2026-05-04 22:00 | 34.70223 | -115.36507 | 26887 ft | 278 kts | 206° |
| 2026-05-04 22:01 | 34.68413 | -115.37329 | 26891 ft | 278 kts | 207° |
| 2026-05-04 22:01 | 34.66592 | -115.38140 | 26883 ft | 281 kts | 207° |
| 2026-05-04 22:01 | 34.64716 | -115.38959 | 26898 ft | 293 kts | 206° |
| 2026-05-04 22:01 | 34.62743 | -115.39817 | 26755 ft | 311 kts | 206° |
| 2026-05-04 22:02 | 34.60641 | -115.40741 | 26363 ft | 333 kts | 206° |
| 2026-05-04 22:02 | 34.58425 | -115.41720 | 25878 ft | 343 kts | 205° |
| 2026-05-04 22:02 | 34.56189 | -115.42689 | 25393 ft | 340 kts | 205° |
| 2026-05-04 22:02 | 34.53970 | -115.43634 | 24907 ft | 337 kts | 206° |
| 2026-05-04 22:03 | 34.51768 | -115.44583 | 24417 ft | 333 kts | 206° |
| 2026-05-04 22:03 | 34.49599 | -115.45533 | 23922 ft | 330 kts | 206° |
| 2026-05-04 22:03 | 34.47457 | -115.46483 | 23449 ft | 326 kts | 207° |
| 2026-05-04 22:03 | 34.45341 | -115.47438 | 22986 ft | 323 kts | 207° |
| 2026-05-04 22:04 | 34.43243 | -115.48352 | 22515 ft | 320 kts | 206° |
| 2026-05-04 22:04 | 34.41159 | -115.49250 | 22059 ft | 317 kts | 207° |
| 2026-05-04 22:04 | 34.39092 | -115.50140 | 21616 ft | 314 kts | 206° |
| 2026-05-04 22:04 | 34.37047 | -115.51019 | 21149 ft | 311 kts | 207° |
| 2026-05-04 22:05 | 34.35029 | -115.51905 | 20718 ft | 307 kts | 207° |
| 2026-05-04 22:05 | 34.33092 | -115.52934 | 20277 ft | 301 kts | 213° |
| 2026-05-04 22:05 | 34.31358 | -115.54315 | 19852 ft | 301 kts | 222° |
| 2026-05-04 22:05 | 34.29747 | -115.56014 | 19406 ft | 314 kts | 226° |
| 2026-05-04 22:06 | 34.28149 | -115.57874 | 18922 ft | 321 kts | 226° |
| 2026-05-04 22:06 | 34.26549 | -115.59740 | 18453 ft | 319 kts | 226° |
| 2026-05-04 22:06 | 34.24950 | -115.61571 | 17993 ft | 316 kts | 225° |
| 2026-05-04 22:06 | 34.23363 | -115.63375 | 17568 ft | 312 kts | 225° |
| 2026-05-04 22:07 | 34.21791 | -115.65152 | 17138 ft | 308 kts | 224° |
| 2026-05-04 22:07 | 34.20230 | -115.66910 | 16685 ft | 307 kts | 224° |
| 2026-05-04 22:07 | 34.18669 | -115.68647 | 16230 ft | 305 kts | 224° |
| 2026-05-04 22:07 | 34.17115 | -115.70373 | 15784 ft | 302 kts | 224° |
| 2026-05-04 22:08 | 34.15582 | -115.72101 | 15339 ft | 300 kts | 224° |
| 2026-05-04 22:08 | 34.14070 | -115.73819 | 14899 ft | 298 kts | 225° |
| 2026-05-04 22:08 | 34.12569 | -115.75531 | 14448 ft | 297 kts | 224° |
| 2026-05-04 22:08 | 34.11031 | -115.77180 | 14003 ft | 297 kts | 221° |
| 2026-05-04 22:09 | 34.09375 | -115.78657 | 13561 ft | 296 kts | 216° |
| 2026-05-04 22:09 | 34.07662 | -115.80018 | 13130 ft | 295 kts | 214° |
| 2026-05-04 22:09 | 34.05938 | -115.81353 | 12680 ft | 295 kts | 215° |
| 2026-05-04 22:09 | 34.04229 | -115.82701 | 12240 ft | 294 kts | 215° |
| 2026-05-04 22:10 | 34.02531 | -115.84068 | 11792 ft | 294 kts | 216° |
| 2026-05-04 22:10 | 34.00839 | -115.85443 | 11347 ft | 294 kts | 216° |
| 2026-05-04 22:10 | 33.99143 | -115.86822 | 10910 ft | 294 kts | 216° |
| 2026-05-04 22:10 | 33.97447 | -115.88203 | 10524 ft | 293 kts | 216° |
| 2026-05-04 22:11 | 33.95779 | -115.89559 | 10308 ft | 285 kts | 215° |
| 2026-05-04 22:11 | 33.94164 | -115.90866 | 10209 ft | 274 kts | 216° |
| 2026-05-04 22:11 | 33.92612 | -115.92120 | 10051 ft | 266 kts | 215° |
| 2026-05-04 22:11 | 33.91083 | -115.93360 | 9723 ft | 265 kts | 216° |
| 2026-05-04 22:12 | 33.89556 | -115.94603 | 9367 ft | 265 kts | 216° |
| 2026-05-04 22:12 | 33.88073 | -115.95901 | 9051 ft | 262 kts | 223° |
| 2026-05-04 22:12 | 33.86903 | -115.97523 | 9014 ft | 255 kts | 239° |
| 2026-05-04 22:12 | 33.85990 | -115.99376 | 9016 ft | 262 kts | 242° |
| 2026-05-04 22:13 | 33.85086 | -116.01306 | 8919 ft | 266 kts | 241° |
| 2026-05-04 22:13 | 33.84154 | -116.03205 | 8657 ft | 262 kts | 240° |
| 2026-05-04 22:13 | 33.83207 | -116.05063 | 8329 ft | 260 kts | 239° |
| 2026-05-04 22:13 | 33.82260 | -116.06899 | 8055 ft | 256 kts | 239° |
| 2026-05-04 22:14 | 33.81350 | -116.08687 | 7964 ft | 245 kts | 242° |
| 2026-05-04 22:14 | 33.80780 | -116.10607 | 7581 ft | 246 kts | 260° |
| 2026-05-04 22:14 | 33.80566 | -116.12648 | 7128 ft | 250 kts | 262° |
| 2026-05-04 22:14 | 33.80307 | -116.14703 | 6645 ft | 250 kts | 259° |
| 2026-05-04 22:15 | 33.79948 | -116.16733 | 6198 ft | 249 kts | 256° |
| 2026-05-04 22:15 | 33.79545 | -116.18735 | 5826 ft | 244 kts | 256° |
| 2026-05-04 22:15 | 33.79145 | -116.20689 | 5503 ft | 238 kts | 256° |
| 2026-05-04 22:15 | 33.78758 | -116.22597 | 5189 ft | 233 kts | 256° |
| 2026-05-04 22:16 | 33.78383 | -116.24463 | 4865 ft | 228 kts | 257° |
| 2026-05-04 22:16 | 33.78014 | -116.26303 | 4546 ft | 225 kts | 257° |
| 2026-05-04 22:16 | 33.77646 | -116.28113 | 4237 ft | 222 kts | 256° |
| 2026-05-04 22:16 | 33.77279 | -116.29911 | 3929 ft | 222 kts | 257° |
| 2026-05-04 22:17 | 33.76915 | -116.31709 | 3611 ft | 222 kts | 257° |
| 2026-05-04 22:17 | 33.76556 | -116.33493 | 3300 ft | 219 kts | 256° |
| 2026-05-04 22:17 | 33.76202 | -116.35262 | 2982 ft | 218 kts | 257° |
| 2026-05-04 22:17 | 33.75851 | -116.37009 | 2674 ft | 214 kts | 257° |
| 2026-05-04 22:18 | 33.75498 | -116.38734 | 2354 ft | 212 kts | 257° |
| 2026-05-04 22:18 | 33.75148 | -116.40437 | 2036 ft | 209 kts | 259° |
| 2026-05-04 22:18 | 33.74954 | -116.42140 | 1719 ft | 204 kts | 279° |
| 2026-05-04 22:18 | 33.75464 | -116.43665 | 1413 ft | 198 kts | 314° |
| 2026-05-04 22:19 | 33.76515 | -116.44687 | 1143 ft | 190 kts | 324° |
| 2026-05-04 22:19 | 33.77525 | -116.45590 | 935 ft | 170 kts | 322° |
| 2026-05-04 22:19 | 33.78389 | -116.46447 | 893 ft | 153 kts | 321° |
| 2026-05-04 22:19 | 33.79219 | -116.47247 | 880 ft | 154 kts | 324° |
| 2026-05-04 22:20 | 33.80039 | -116.48003 | 725 ft | 149 kts | 318° |
| 2026-05-04 22:20 | 33.80775 | -116.48810 | 668 ft | 145 kts | 321° |
| 2026-05-04 22:20 | 33.81589 | -116.49552 | 525 ft | 142 kts | 325° |
| 2026-05-04 22:20 | 33.82378 | -116.50249 | 445 ft | 133 kts | 325° |
| 2026-05-04 22:21 | 33.82948 | -116.50748 | 464 ft | 68 kts | 325° |
| 2026-05-04 22:21 | 33.83182 | -116.50952 | 473 ft | 27 kts | 321° |
| 2026-05-04 22:21 | 33.83316 | -116.51088 | 476 ft | 19 kts | 305° |
| 2026-05-04 22:21 | 33.83294 | -116.51179 | 477 ft | 10 kts | 210° |
| 2026-05-04 22:22 | 33.83215 | -116.51192 | 476 ft | 16 kts | 162° |
| 2026-05-04 22:22 | 33.83104 | -116.51104 | 472 ft | 19 kts | 144° |
| 2026-05-04 22:22 | 33.82997 | -116.51012 | 470 ft | 18 kts | 146° |
| 2026-05-04 22:22 | 33.82893 | -116.50913 | 466 ft | 19 kts | 137° |
| 2026-05-04 22:23 | 33.82784 | -116.50811 | 462 ft | 20 kts | 142° |
| 2026-05-04 22:23 | 33.82674 | -116.50717 | 457 ft | 13 kts | 140° |
| 2026-05-04 22:23 | 33.82591 | -116.50700 | 455 ft | 11 kts | 187° |
| 2026-05-04 22:23 | 33.82516 | -116.50657 | 453 ft | 12 kts | 148° |
| 2026-05-04 22:24 | 33.82433 | -116.50639 | 451 ft | 11 kts | 191° |
| 2026-05-04 22:24 | 33.82393 | -116.50652 | 450 ft | 0 kts | 199° |
| 2026-05-04 22:24 | 33.82389 | -116.50654 | 450 ft | 0 kts | 197° |